Hyundai No.107 — A8CT4 — position and weather

sailwx.info

Track history (hours):
 
Tides and Currents Weather Stations Pressure Air Temp Water Temp Dewpoint Dewpoint Depression Visibility Wind Speed Wind Dir Waves Ship Positions

Hyundai No.107

Last reported at 2016-Sep-08 15:30 UTC. Time now 2016-Sep-29 16:59 UTC.
Position N 48°30' W 126°15'.
Warning: this ship's position is 21 days out of date.

Length 184 m; draft 7.6 m.

Type: Cargo ship. MMSI: 636011980.

Date/timePositionNaut miles runAvg speedWind from/ knotsBaromVisibWave heightAir tempDewpointWater temp
2016-Sep-08 15:30N 48°30' W 126°15'1010.8
2016-Sep-08 14:34N 48°30' W 125°60'1111.2
2016-Sep-08 13:34N 48°30' W 125°43'1212.2
2016-Sep-08 12:34N 48°30' W 125°24'1312.3
2016-Sep-08 11:31N 48°30' W 125°05'1212.2
2016-Sep-08 10:33N 48°30' W 124°47'1313.3
2016-Sep-08 09:33N 48°26' W 124°28'1414.2
2016-Sep-08 08:33N 48°21' W 124°08'1514.4
2016-Sep-08 07:32N 48°17' W 123°47'1414.1
2016-Sep-08 06:33N 48°13' W 123°27'1010.0
2016-Sep-08 05:33N 48°11' W 123°13'1616.2
2016-Sep-08 04:32N 48°12' W 122°48'1515.1
2016-Sep-08 03:33N 47°59' W 122°36'1515.1
2016-Sep-08 02:33N 47°46' W 122°26'1515.3
2016-Sep-08 01:33N 47°31' W 122°25'1312.7
2016-Sep-08 00:34N 47°18' W 122°27'2 2.3
2016-Sep-07 23:33N 47°16' W 122°25'0 0.0
2016-Sep-07 22:33N 47°16' W 122°25'0 0.0
2016-Sep-07 21:33N 47°16' W 122°25'0 0.0
2016-Sep-07 20:33N 47°16' W 122°25'0 0.0
2016-Sep-07 19:33N 47°16' W 122°25'0 0.0
2016-Sep-07 18:33N 47°16' W 122°25'0 0.0
2016-Sep-07 17:33N 47°16' W 122°25'0 0.0
2016-Sep-07 16:33N 47°16' W 122°25'0 0.0
2016-Sep-07 15:33N 47°16' W 122°25'0 0.0
2016-Sep-07 14:33N 47°16' W 122°25'0 0.0
2016-Sep-07 13:33N 47°16' W 122°25'0 0.0
2016-Sep-07 12:33N 47°16' W 122°25'1 0.6
2016-Sep-07 11:33N 47°17' W 122°26'6 6.0
2016-Sep-07 10:34N 47°22' W 122°23'1514.5
2016-Sep-07 09:34N 47°36' W 122°28'1514.9
2016-Sep-07 08:34N 47°51' W 122°28'1313.0
2016-Sep-07 07:33N 48°02' W 122°39'1211.7
2016-Sep-07 06:33N 48°11' W 122°51'2512.5
2016-Sep-07 04:33N 48°12' W 123°28'10 9.7
2016-Sep-07 03:33N 48°21' W 123°25'9 9.3
2016-Sep-07 02:33N 48°25' W 123°12'1515.4
2016-Sep-07 01:33N 48°40' W 123°15'1313.4
2016-Sep-07 00:33N 48°50' W 123°01'1615.8
2016-Sep-06 23:33N 49°01' W 123°18'8 8.0
2016-Sep-06 22:33N 49°07' W 123°11'5 4.5
2016-Sep-06 21:32N 49°08' W 123°04'0 0.0
2016-Sep-06 20:26N 49°08' W 123°04'0 0.0
2016-Sep-06 19:32N 49°08' W 123°04'0 0.0
2016-Sep-06 18:32N 49°08' W 123°04'0 0.0
2016-Sep-06 17:32N 49°08' W 123°04'0 0.0
2016-Sep-06 16:32N 49°08' W 123°04'0 0.0
2016-Sep-06 15:32N 49°08' W 123°04'0 0.0
2016-Sep-06 14:31N 49°08' W 123°04'0 0.0
2016-Sep-06 13:31N 49°08' W 123°04'1 1.2
2016-Sep-06 12:33N 49°07' W 123°06'10 9.6
2016-Sep-06 11:33N 49°05' W 123°20'1111.4
2016-Sep-06 10:34N 48°57' W 123°09'1212.2
2016-Sep-06 09:33N 48°45' W 123°04'1111.2
2016-Sep-06 08:33N 48°36' W 123°13'1212.2
2016-Sep-06 07:34N 48°23' W 123°13'10 9.9
2016-Sep-06 06:33N 48°17' W 123°25'2110.7
2016-Sep-06 04:33N 48°14' W 123°57'1211.9
2016-Sep-06 03:33N 48°19' W 124°13'1312.9
2016-Sep-06 02:33N 48°24' W 124°31'1413.6
2016-Sep-06 01:33N 48°28' W 124°51'1615.5
2016-Sep-06 00:33N 48°27' W 125°14'1514.7
2016-Sep-05 23:34N 48°27' W 125°36'1514.8
2016-Sep-05 22:32N 48°27' W 125°59'1515.3
2016-Sep-05 21:33N 48°27' W 126°21'  
Track history (hours):
 
Tides and Currents Weather Stations Pressure Air Temp Water Temp Dewpoint Dewpoint Depression Visibility Wind Speed Wind Dir Waves Ship Positions

Hyundai No.107

Last reported at 2016-Sep-08 15:30 UTC. Time now 2016-Sep-29 16:59 UTC.
Position N 48°30' W 126°15'.
Warning: this ship's position is 21 days out of date.

Length 184 m; draft 7.6 m.

Type: Cargo ship. MMSI: 636011980.

Date/timePositionNaut miles runAvg speedWind from/ knotsBaromVisibWave heightAir tempDewpointWater temp
2016-Sep-08 15:30N 48°30' W 126°15'1010.8
2016-Sep-08 14:34N 48°30' W 125°60'1111.2
2016-Sep-08 13:34N 48°30' W 125°43'1212.2
2016-Sep-08 12:34N 48°30' W 125°24'1312.3
2016-Sep-08 11:31N 48°30' W 125°05'1212.2
2016-Sep-08 10:33N 48°30' W 124°47'1313.3
2016-Sep-08 09:33N 48°26' W 124°28'1414.2
2016-Sep-08 08:33N 48°21' W 124°08'1514.4
2016-Sep-08 07:32N 48°17' W 123°47'1414.1
2016-Sep-08 06:33N 48°13' W 123°27'1010.0
2016-Sep-08 05:33N 48°11' W 123°13'1616.2
2016-Sep-08 04:32N 48°12' W 122°48'1515.1
2016-Sep-08 03:33N 47°59' W 122°36'1515.1
2016-Sep-08 02:33N 47°46' W 122°26'1515.3
2016-Sep-08 01:33N 47°31' W 122°25'1312.7
2016-Sep-08 00:34N 47°18' W 122°27'2 2.3
2016-Sep-07 23:33N 47°16' W 122°25'0 0.0
2016-Sep-07 22:33N 47°16' W 122°25'0 0.0
2016-Sep-07 21:33N 47°16' W 122°25'0 0.0
2016-Sep-07 20:33N 47°16' W 122°25'0 0.0
2016-Sep-07 19:33N 47°16' W 122°25'0 0.0
2016-Sep-07 18:33N 47°16' W 122°25'0 0.0
2016-Sep-07 17:33N 47°16' W 122°25'0 0.0
2016-Sep-07 16:33N 47°16' W 122°25'0 0.0
2016-Sep-07 15:33N 47°16' W 122°25'0 0.0
2016-Sep-07 14:33N 47°16' W 122°25'0 0.0
2016-Sep-07 13:33N 47°16' W 122°25'0 0.0
2016-Sep-07 12:33N 47°16' W 122°25'1 0.6
2016-Sep-07 11:33N 47°17' W 122°26'6 6.0
2016-Sep-07 10:34N 47°22' W 122°23'1514.5
2016-Sep-07 09:34N 47°36' W 122°28'1514.9
2016-Sep-07 08:34N 47°51' W 122°28'1313.0
2016-Sep-07 07:33N 48°02' W 122°39'1211.7
2016-Sep-07 06:33N 48°11' W 122°51'2512.5
2016-Sep-07 04:33N 48°12' W 123°28'10 9.7
2016-Sep-07 03:33N 48°21' W 123°25'9 9.3
2016-Sep-07 02:33N 48°25' W 123°12'1515.4
2016-Sep-07 01:33N 48°40' W 123°15'1313.4
2016-Sep-07 00:33N 48°50' W 123°01'1615.8
2016-Sep-06 23:33N 49°01' W 123°18'8 8.0
2016-Sep-06 22:33N 49°07' W 123°11'5 4.5
2016-Sep-06 21:32N 49°08' W 123°04'0 0.0
2016-Sep-06 20:26N 49°08' W 123°04'0 0.0
2016-Sep-06 19:32N 49°08' W 123°04'0 0.0
2016-Sep-06 18:32N 49°08' W 123°04'0 0.0
2016-Sep-06 17:32N 49°08' W 123°04'0 0.0
2016-Sep-06 16:32N 49°08' W 123°04'0 0.0
2016-Sep-06 15:32N 49°08' W 123°04'0 0.0
2016-Sep-06 14:31N 49°08' W 123°04'0 0.0
2016-Sep-06 13:31N 49°08' W 123°04'1 1.2
2016-Sep-06 12:33N 49°07' W 123°06'10 9.6
2016-Sep-06 11:33N 49°05' W 123°20'1111.4
2016-Sep-06 10:34N 48°57' W 123°09'1212.2
2016-Sep-06 09:33N 48°45' W 123°04'1111.2
2016-Sep-06 08:33N 48°36' W 123°13'1212.2
2016-Sep-06 07:34N 48°23' W 123°13'10 9.9
2016-Sep-06 06:33N 48°17' W 123°25'2110.7
2016-Sep-06 04:33N 48°14' W 123°57'1211.9
2016-Sep-06 03:33N 48°19' W 124°13'1312.9
2016-Sep-06 02:33N 48°24' W 124°31'1413.6
2016-Sep-06 01:33N 48°28' W 124°51'1615.5
2016-Sep-06 00:33N 48°27' W 125°14'1514.7
2016-Sep-05 23:34N 48°27' W 125°36'1514.8
2016-Sep-05 22:32N 48°27' W 125°59'1515.3
2016-Sep-05 21:33N 48°27' W 126°21'  

Dump ship's entire track history